Time;durP1;ratioP1;P1;durP2;ratioP2;P2;SDS_P1;SDS_P2;PMS_P1;PMS_P2;Temp;Humidity;BMP_temperature;BMP_pressure;BME280_temperature;BME280_humidity;BME280_pressure;Samples;Min_cycle;Max_cycle;Signal;HPM_P1;HPM_P2
2024/01/12 00:01:16;;;;;;;20.30;9.68;;;-2.90;75.90;;;;;;5051792;28;20285;-90
2024/01/12 00:03:43;;;;;;;17.02;9.50;;;-2.90;77.00;;;;;;5052141;28;20282;-89
2024/01/12 00:06:11;;;;;;;19.58;10.30;;;-3.00;75.70;;;;;;5052016;28;20282;-89
2024/01/12 00:08:38;;;;;;;19.25;8.25;;;-3.00;76.20;;;;;;5051970;28;20226;-89
2024/01/12 00:11:09;;;;;;;18.02;9.85;;;-3.10;76.00;;;;;;5051453;28;20747;-89
2024/01/12 00:13:36;;;;;;;23.10;11.32;;;-3.10;76.80;;;;;;5051623;28;20277;-89
2024/01/12 00:16:06;;;;;;;23.15;9.75;;;-3.10;77.50;;;;;;5051903;28;20222;-89
2024/01/12 00:18:33;;;;;;;25.88;11.60;;;-3.00;78.00;;;;;;5051734;28;20195;-89
2024/01/12 00:21:00;;;;;;;24.50;11.52;;;-3.00;77.80;;;;;;5051859;28;20227;-89
2024/01/12 00:23:30;;;;;;;24.42;11.10;;;-3.00;77.70;;;;;;5050372;28;20270;-89
2024/01/12 00:25:59;;;;;;;19.65;9.82;;;-3.10;76.90;;;;;;5051669;28;20584;-88
2024/01/12 00:28:26;;;;;;;19.67;9.98;;;-3.00;76.00;;;;;;5051553;28;20195;-88
2024/01/12 00:30:56;;;;;;;27.98;11.60;;;-3.00;76.50;;;;;;5051197;28;20555;-89
2024/01/12 00:33:26;;;;;;;29.02;12.27;;;-3.10;76.60;;;;;;5051203;28;20278;-88
2024/01/12 00:35:53;;;;;;;25.55;10.40;;;-3.10;77.00;;;;;;5051635;28;20612;-89
2024/01/12 00:38:20;;;;;;;25.85;11.07;;;-3.10;77.00;;;;;;5049839;28;20679;-89
2024/01/12 00:40:48;;;;;;;21.45;11.07;;;-3.10;76.80;;;;;;5051526;28;20285;-88
2024/01/12 00:43:15;;;;;;;21.33;10.73;;;-3.10;76.40;;;;;;5051445;28;20627;-89
2024/01/12 00:45:42;;;;;;;21.35;10.52;;;-3.20;76.60;;;;;;5051313;28;20274;-89
2024/01/12 00:48:09;;;;;;;20.77;9.60;;;-3.20;77.00;;;;;;5051440;28;20725;-89
2024/01/12 00:50:36;;;;;;;25.45;13.52;;;-3.10;77.10;;;;;;5051049;28;20195;-89
2024/01/12 00:53:03;;;;;;;24.05;10.52;;;-3.10;77.20;;;;;;5050746;28;20277;-88
2024/01/12 00:55:30;;;;;;;23.35;11.73;;;-3.10;77.50;;;;;;5051118;28;20285;-89
2024/01/12 00:57:58;;;;;;;24.92;10.52;;;-3.00;77.30;;;;;;5050757;28;20660;-89
2024/01/12 01:00:25;;;;;;;24.65;11.90;;;-3.00;76.90;;;;;;5051044;28;20282;-89
2024/01/12 01:02:52;;;;;;;18.80;11.15;;;-3.00;76.50;;;;;;5051047;28;20290;-89
2024/01/12 01:05:19;;;;;;;20.17;11.40;;;-3.00;76.60;;;;;;5051023;28;20274;-88
2024/01/12 01:07:46;;;;;;;29.58;11.43;;;-3.00;76.70;;;;;;5050912;28;20191;-88
2024/01/12 01:10:13;;;;;;;20.17;9.57;;;-2.90;76.50;;;;;;5050967;28;20273;-89
2024/01/12 01:12:40;;;;;;;25.60;11.65;;;-3.00;75.20;;;;;;5050889;28;20237;-89
2024/01/12 01:15:13;;;;;;;18.15;10.98;;;-3.00;74.80;;;;;;5050961;28;20191;-89
2024/01/12 01:17:40;;;;;;;23.35;11.50;;;-3.10;74.70;;;;;;5049819;28;20183;-89
2024/01/12 01:20:08;;;;;;;20.65;10.35;;;-3.20;74.80;;;;;;5050562;28;20281;-89
2024/01/12 01:22:35;;;;;;;23.40;10.63;;;-3.20;75.60;;;;;;5050470;28;20659;-89
2024/01/12 01:25:02;;;;;;;22.25;10.40;;;-3.30;76.20;;;;;;5050792;28;20610;-89
2024/01/12 01:27:29;;;;;;;22.77;11.23;;;-3.50;76.40;;;;;;5049991;28;20191;-89
2024/01/12 01:29:56;;;;;;;21.77;9.25;;;-3.50;76.70;;;;;;5050748;28;20274;-89
2024/01/12 01:32:24;;;;;;;21.75;10.95;;;-3.50;76.40;;;;;;5050452;28;20301;-88
2024/01/12 01:34:51;;;;;;;20.73;10.30;;;-3.60;76.80;;;;;;5050415;28;20270;-89
2024/01/12 01:37:18;;;;;;;22.40;10.55;;;-3.60;77.70;;;;;;5050640;28;20229;-89
2024/01/12 01:39:45;;;;;;;19.92;10.60;;;-3.60;78.10;;;;;;5050550;28;20273;-89
2024/01/12 01:42:12;;;;;;;20.60;10.18;;;-3.70;76.90;;;;;;5050303;28;20289;-89
2024/01/12 01:44:39;;;;;;;29.70;12.80;;;-3.80;77.30;;;;;;5049982;28;20650;-88
2024/01/12 01:47:06;;;;;;;24.58;11.15;;;-3.80;78.00;;;;;;5050365;28;20326;-88
2024/01/12 01:49:38;;;;;;;27.15;11.52;;;-3.70;78.30;;;;;;5050448;28;20690;-88
2024/01/12 01:52:05;;;;;;;22.77;11.80;;;-3.80;78.00;;;;;;5050369;28;20683;-89
2024/01/12 01:54:34;;;;;;;20.15;9.95;;;-3.80;77.80;;;;;;5050447;28;20270;-89
2024/01/12 01:57:01;;;;;;;22.85;10.18;;;-3.80;78.10;;;;;;5050316;28;20194;-89
2024/01/12 01:59:28;;;;;;;19.58;10.60;;;-3.80;78.40;;;;;;5049926;28;20281;-89
2024/01/12 02:01:55;;;;;;;20.42;10.10;;;-3.70;78.60;;;;;;5050043;28;20282;-89
2024/01/12 02:04:22;;;;;;;22.20;10.98;;;-3.60;77.20;;;;;;5050240;28;20230;-88
2024/01/12 02:06:52;;;;;;;17.50;8.38;;;-3.60;77.20;;;;;;5049995;28;20278;-89
2024/01/12 02:09:19;;;;;;;20.02;8.82;;;-3.60;76.70;;;;;;5050167;28;20281;-89
2024/01/12 02:11:46;;;;;;;16.65;8.68;;;-3.60;75.60;;;;;;5049728;28;20561;-88
2024/01/12 02:14:13;;;;;;;16.25;8.05;;;-3.60;75.60;;;;;;5049642;28;20194;-89
2024/01/12 02:16:40;;;;;;;18.60;9.40;;;-3.60;75.80;;;;;;5049760;28;20240;-89
2024/01/12 02:19:06;;;;;;;18.23;9.10;;;-3.60;75.90;;;;;;5050014;28;20584;-88
2024/01/12 02:21:34;;;;;;;24.83;11.63;;;-3.60;75.90;;;;;;5049740;28;20244;-89
2024/01/12 02:24:01;;;;;;;20.52;10.75;;;-3.60;75.60;;;;;;5052685;27;20505;-89
2024/01/12 02:26:28;;;;;;;23.88;9.57;;;-3.60;75.80;;;;;;5154897;27;20568;-89
2024/01/12 02:28:55;;;;;;;19.92;10.00;;;-3.60;75.50;;;;;;5155242;27;20278;-89
2024/01/12 02:31:22;;;;;;;18.15;8.32;;;-3.50;75.50;;;;;;5112896;27;20311;-89
2024/01/12 02:33:50;;;;;;;21.95;8.90;;;-3.50;75.60;;;;;;5053241;28;20274;-89
2024/01/12 02:36:17;;;;;;;25.63;10.98;;;-3.60;75.30;;;;;;5053439;28;20223;-88
2024/01/12 02:38:51;;;;;;;15.52;7.45;;;-3.50;75.50;;;;;;5053332;28;20226;-90
2024/01/12 02:41:18;;;;;;;20.98;9.15;;;-3.50;75.30;;;;;;5051924;28;20257;-89
2024/01/12 02:43:45;;;;;;;20.05;9.05;;;-3.50;75.20;;;;;;5051941;27;20191;-89
2024/01/12 02:46:12;;;;;;;18.83;9.88;;;-3.50;74.90;;;;;;5052057;28;20257;-89
2024/01/12 02:48:39;;;;;;;25.27;9.98;;;-3.50;75.00;;;;;;5053030;28;20274;-89
2024/01/12 02:51:06;;;;;;;19.30;9.43;;;-3.50;75.10;;;;;;5053023;28;20282;-89
2024/01/12 02:53:33;;;;;;;17.42;9.38;;;-3.50;75.20;;;;;;5052671;28;20227;-89
2024/01/12 02:56:01;;;;;;;17.25;8.80;;;-3.40;75.30;;;;;;5053185;28;20695;-89
2024/01/12 02:58:28;;;;;;;18.08;8.95;;;-3.40;75.40;;;;;;5052815;28;20652;-89
2024/01/12 03:00:55;;;;;;;15.93;9.02;;;-3.40;75.40;;;;;;5052965;28;20278;-89
2024/01/12 03:03:22;;;;;;;18.10;8.95;;;-3.30;75.20;;;;;;5053037;28;20290;-89
2024/01/12 03:05:50;;;;;;;17.98;9.82;;;-3.30;74.70;;;;;;5052737;28;20286;-90
2024/01/12 03:08:17;;;;;;;17.35;8.52;;;-3.20;74.50;;;;;;5052867;28;20209;-89
2024/01/12 03:10:44;;;;;;;17.63;9.25;;;-3.30;73.80;;;;;;5052847;28;20218;-89
2024/01/12 03:13:12;;;;;;;12.82;7.93;;;-3.30;72.50;;;;;;5052616;28;20250;-90
2024/01/12 03:15:39;;;;;;;20.80;9.20;;;-3.40;72.50;;;;;;5051179;28;20199;-89
2024/01/12 03:18:06;;;;;;;20.20;9.50;;;-3.50;72.50;;;;;;5052120;28;20667;-89
2024/01/12 03:20:33;;;;;;;16.92;9.25;;;-3.60;72.40;;;;;;5052728;28;20298;-89
2024/01/12 03:23:00;;;;;;;18.77;8.35;;;-3.70;72.50;;;;;;5052473;28;20203;-89
2024/01/12 03:25:27;;;;;;;16.42;8.48;;;-3.80;72.70;;;;;;5052334;28;20197;-89
2024/01/12 03:27:54;;;;;;;21.42;9.02;;;-4.00;73.40;;;;;;5052618;28;20619;-89
2024/01/12 03:30:22;;;;;;;15.55;7.20;;;-4.00;74.30;;;;;;5052579;28;20281;-89
2024/01/12 03:32:49;;;;;;;22.48;9.55;;;-4.00;74.50;;;;;;5052570;28;20297;-89
2024/01/12 03:35:16;;;;;;;18.75;9.20;;;-4.00;74.00;;;;;;5052702;28;20191;-89
2024/01/12 03:37:43;;;;;;;22.02;9.48;;;-4.10;74.30;;;;;;5052293;28;20278;-89
2024/01/12 03:40:11;;;;;;;20.20;9.15;;;-4.10;74.40;;;;;;5051741;28;20278;-89
2024/01/12 03:42:38;;;;;;;17.35;9.27;;;-4.20;74.30;;;;;;5052307;28;20221;-89
2024/01/12 03:45:06;;;;;;;22.85;10.50;;;-4.20;74.30;;;;;;5052388;28;20278;-89
2024/01/12 03:47:34;;;;;;;20.70;9.30;;;-4.30;74.30;;;;;;5051781;28;20262;-89
2024/01/12 03:50:02;;;;;;;19.15;8.80;;;-4.30;74.20;;;;;;5052278;28;20278;-88
2024/01/12 03:52:28;;;;;;;21.65;9.05;;;-4.40;74.40;;;;;;5052127;28;20231;-88
2024/01/12 03:54:55;;;;;;;18.05;7.63;;;-4.30;74.50;;;;;;5052166;28;20614;-89
2024/01/12 03:57:22;;;;;;;20.25;8.90;;;-4.40;74.50;;;;;;5052145;28;20282;-89
2024/01/12 03:59:49;;;;;;;19.45;10.18;;;-4.30;74.70;;;;;;5052107;28;20227;-89
2024/01/12 04:02:16;;;;;;;16.67;8.10;;;-4.30;74.60;;;;;;5050989;28;20299;-89
2024/01/12 04:04:44;;;;;;;20.73;9.18;;;-4.30;74.50;;;;;;5050871;28;20198;-89
2024/01/12 04:07:11;;;;;;;20.80;9.35;;;-4.30;74.40;;;;;;5049862;28;20302;-89
2024/01/12 04:09:39;;;;;;;18.25;9.02;;;-4.30;74.40;;;;;;5049652;28;20282;-89
2024/01/12 04:12:07;;;;;;;18.17;9.18;;;-4.30;74.20;;;;;;5051647;28;20281;-89
2024/01/12 04:14:34;;;;;;;15.02;8.27;;;-4.30;74.20;;;;;;5051527;28;20277;-89
2024/01/12 04:17:01;;;;;;;16.98;8.70;;;-4.40;74.00;;;;;;5051841;28;20278;-89
2024/01/12 04:19:28;;;;;;;14.18;7.93;;;-4.40;73.90;;;;;;5051481;28;20278;-89
2024/01/12 04:21:56;;;;;;;20.77;9.02;;;-4.40;73.60;;;;;;5051640;28;20214;-89
2024/01/12 04:24:23;;;;;;;14.68;8.48;;;-4.40;73.30;;;;;;5051622;28;20281;-89
2024/01/12 04:26:50;;;;;;;16.83;8.13;;;-4.40;73.00;;;;;;5051599;28;20282;-89
2024/01/12 04:29:17;;;;;;;16.17;7.25;;;-4.40;72.70;;;;;;5050310;28;20285;-89
2024/01/12 04:31:44;;;;;;;21.88;8.20;;;-4.50;72.20;;;;;;5050107;28;20277;-89
2024/01/12 04:34:11;;;;;;;16.88;8.10;;;-4.50;71.90;;;;;;5050763;28;20198;-89
2024/01/12 04:36:38;;;;;;;14.55;7.53;;;-4.50;71.10;;;;;;5051155;28;20282;-89
2024/01/12 04:39:07;;;;;;;21.10;8.57;;;-4.60;70.30;;;;;;5050821;28;20278;-89
2024/01/12 04:41:34;;;;;;;13.77;7.22;;;-4.70;70.00;;;;;;5051012;28;20277;-89
2024/01/12 04:44:01;;;;;;;15.30;6.50;;;-4.70;70.10;;;;;;5051029;28;20306;-88
2024/01/12 04:46:28;;;;;;;15.80;8.30;;;-4.70;70.60;;;;;;5050999;28;20313;-88
2024/01/12 04:48:55;;;;;;;17.63;8.25;;;-4.70;71.10;;;;;;5051261;28;20278;-89
2024/01/12 04:51:22;;;;;;;16.05;7.57;;;-4.80;71.00;;;;;;5050753;28;20223;-88
2024/01/12 04:53:49;;;;;;;15.95;8.93;;;-4.80;71.80;;;;;;5051006;28;20290;-89
2024/01/12 04:56:18;;;;;;;15.73;8.18;;;-4.80;72.00;;;;;;5051293;28;20278;-89
2024/01/12 04:58:45;;;;;;;17.50;9.30;;;-4.80;72.20;;;;;;5049920;28;20199;-89
2024/01/12 05:01:11;;;;;;;20.80;10.50;;;-4.80;72.40;;;;;;5050835;28;20281;-89
2024/01/12 05:03:38;;;;;;;13.52;6.55;;;-4.80;72.50;;;;;;5049529;28;20222;-88
2024/01/12 05:06:06;;;;;;;25.33;9.82;;;-4.70;72.80;;;;;;5051264;28;20287;-89
2024/01/12 05:08:34;;;;;;;22.70;11.07;;;-4.70;73.10;;;;;;5050729;28;20731;-89
2024/01/12 05:11:01;;;;;;;20.05;10.45;;;-4.70;73.10;;;;;;5050637;28;20197;-89
2024/01/12 05:13:29;;;;;;;27.30;9.88;;;-4.60;73.30;;;;;;5050899;27;20198;-90
2024/01/12 05:15:56;;;;;;;16.83;8.70;;;-4.60;73.20;;;;;;5050887;28;20194;-89
2024/01/12 05:18:23;;;;;;;15.48;8.43;;;-4.50;73.10;;;;;;5050471;28;20285;-89
2024/01/12 05:20:50;;;;;;;16.77;8.35;;;-4.50;72.90;;;;;;5050753;28;20274;-89
2024/01/12 05:23:19;;;;;;;22.48;9.95;;;-4.50;73.00;;;;;;5050630;28;20297;-89
2024/01/12 05:25:46;;;;;;;30.40;12.25;;;-4.50;72.80;;;;;;5051102;28;20580;-89
2024/01/12 05:28:13;;;;;;;23.85;10.82;;;-4.50;72.70;;;;;;5050985;28;20294;-89
2024/01/12 05:30:41;;;;;;;24.08;10.65;;;-4.50;72.40;;;;;;5050796;28;20222;-88
2024/01/12 05:33:08;;;;;;;22.85;11.48;;;-4.60;72.40;;;;;;5050676;28;20226;-89
2024/01/12 05:35:37;;;;;;;28.50;13.15;;;-4.50;72.80;;;;;;5050711;28;20284;-87
2024/01/12 05:38:04;;;;;;;25.10;12.00;;;-4.50;72.70;;;;;;5050466;28;20195;-89
2024/01/12 05:40:31;;;;;;;28.00;12.88;;;-4.50;72.70;;;;;;5050509;28;20281;-89
2024/01/12 05:42:58;;;;;;;32.40;13.98;;;-4.50;73.00;;;;;;5050519;28;20241;-88
2024/01/12 05:45:25;;;;;;;38.63;14.05;;;-4.50;73.00;;;;;;5050167;28;20282;-88
2024/01/12 05:47:54;;;;;;;26.67;11.52;;;-4.50;73.00;;;;;;5049115;28;20689;-89
2024/01/12 05:50:21;;;;;;;20.75;10.65;;;-4.50;72.70;;;;;;5050028;28;20277;-88
2024/01/12 05:52:48;;;;;;;20.25;8.07;;;-4.50;71.90;;;;;;5049300;28;20221;-89
2024/01/12 05:55:15;;;;;;;48.85;15.63;;;-4.60;71.10;;;;;;5050100;28;20282;-88
2024/01/12 05:57:42;;;;;;;79.90;23.20;;;-4.70;70.40;;;;;;5050255;28;20594;-88
2024/01/12 06:00:10;;;;;;;42.10;15.25;;;-4.70;71.10;;;;;;5048956;28;20542;-89
2024/01/12 06:02:36;;;;;;;19.48;8.15;;;-4.70;70.10;;;;;;5048655;28;20317;-89
2024/01/12 06:05:06;;;;;;;17.52;7.68;;;-4.80;69.20;;;;;;5053575;28;20703;-89
2024/01/12 06:07:33;;;;;;;18.50;9.15;;;-4.90;67.30;;;;;;5054117;27;20206;-89
2024/01/12 06:10:00;;;;;;;21.45;9.63;;;-5.10;66.40;;;;;;5053526;28;20282;-89
2024/01/12 06:12:27;;;;;;;17.85;7.72;;;-5.20;66.50;;;;;;5053803;28;20282;-89
2024/01/12 06:14:54;;;;;;;16.15;8.35;;;-5.30;66.80;;;;;;5053628;28;20195;-88
2024/01/12 06:17:21;;;;;;;17.35;8.10;;;-5.40;67.20;;;;;;5053648;28;20226;-89
2024/01/12 06:19:48;;;;;;;19.73;8.98;;;-5.40;67.80;;;;;;5053518;28;20290;-88
2024/01/12 06:22:16;;;;;;;20.00;8.70;;;-5.50;68.40;;;;;;5052370;28;20191;-88
2024/01/12 06:24:43;;;;;;;16.85;8.23;;;-5.50;68.90;;;;;;5053239;28;20744;-89
2024/01/12 06:27:10;;;;;;;17.30;8.65;;;-5.50;69.00;;;;;;5053676;28;20609;-89
2024/01/12 06:29:37;;;;;;;18.55;9.50;;;-5.50;69.20;;;;;;5053594;28;20274;-89
2024/01/12 06:32:05;;;;;;;19.55;8.60;;;-5.50;68.90;;;;;;5053279;28;20231;-89
2024/01/12 06:34:32;;;;;;;21.08;8.05;;;-5.50;68.60;;;;;;5053438;28;20596;-88
2024/01/12 06:36:59;;;;;;;22.83;9.60;;;-5.60;68.80;;;;;;5053598;28;20234;-89
2024/01/12 06:39:27;;;;;;;23.40;10.52;;;-5.50;69.00;;;;;;5052477;28;20219;-89
2024/01/12 06:41:54;;;;;;;20.75;10.70;;;-5.50;69.40;;;;;;5053444;28;20656;-88
2024/01/12 06:44:21;;;;;;;22.00;9.60;;;-5.50;69.70;;;;;;5053288;28;20250;-90
2024/01/12 06:46:47;;;;;;;18.75;8.75;;;-5.40;70.00;;;;;;5052719;28;20725;-88
2024/01/12 06:49:14;;;;;;;19.35;8.90;;;-5.40;70.00;;;;;;5052653;28;20222;-88
2024/01/12 06:51:41;;;;;;;21.52;8.32;;;-5.40;69.70;;;;;;5053272;28;20222;-88
2024/01/12 06:54:08;;;;;;;20.13;9.40;;;-5.40;69.70;;;;;;5053226;28;20290;-89
2024/01/12 06:56:37;;;;;;;21.33;8.73;;;-5.40;69.60;;;;;;5051688;28;20277;-88
2024/01/12 06:59:05;;;;;;;17.95;8.20;;;-5.40;69.70;;;;;;5053188;28;20241;-89
2024/01/12 07:01:32;;;;;;;19.10;10.43;;;-5.50;69.70;;;;;;5052669;28;20274;-88
2024/01/12 07:03:59;;;;;;;18.52;9.15;;;-5.50;69.80;;;;;;5052414;28;20222;-88
2024/01/12 07:06:26;;;;;;;19.05;9.52;;;-5.50;69.70;;;;;;5052658;28;20362;-90
2024/01/12 07:08:53;;;;;;;19.05;8.68;;;-5.50;69.40;;;;;;5051905;28;20274;-93
2024/01/12 07:11:20;;;;;;;20.52;8.73;;;-5.60;67.50;;;;;;5051018;27;20187;-89
2024/01/12 07:13:48;;;;;;;19.65;9.13;;;-5.70;66.10;;;;;;5051365;28;20217;-89
2024/01/12 07:16:15;;;;;;;16.13;7.80;;;-5.70;65.60;;;;;;5051463;28;20303;-88
2024/01/12 07:18:43;;;;;;;17.33;9.05;;;-5.80;65.60;;;;;;5052622;28;20191;-88
2024/01/12 07:21:10;;;;;;;17.70;6.88;;;-5.70;66.00;;;;;;5052706;28;20226;-89
2024/01/12 07:23:37;;;;;;;19.33;9.32;;;-5.70;66.00;;;;;;5052529;28;20297;-89
2024/01/12 07:26:04;;;;;;;18.98;9.25;;;-5.80;65.70;;;;;;5052077;28;20284;-89
2024/01/12 07:28:31;;;;;;;21.70;9.63;;;-5.80;67.00;;;;;;5052053;28;20296;-88
2024/01/12 07:30:59;;;;;;;22.50;9.02;;;-5.80;66.70;;;;;;5081101;27;20215;-89
2024/01/12 07:33:26;;;;;;;13.15;7.57;;;-5.80;67.40;;;;;;5050678;28;20243;-90
2024/01/12 07:35:53;;;;;;;17.08;8.77;;;-5.80;68.50;;;;;;5052281;28;20230;-88
2024/01/12 07:38:20;;;;;;;21.73;9.90;;;-5.80;69.20;;;;;;5048922;28;20219;-89
2024/01/12 07:40:47;;;;;;;21.65;10.85;;;-5.70;69.30;;;;;;5052188;28;20214;-88
2024/01/12 07:43:16;;;;;;;28.15;11.80;;;-5.70;69.50;;;;;;5051759;28;20296;-88
2024/01/12 07:45:43;;;;;;;24.92;10.85;;;-5.60;69.80;;;;;;5051982;28;20183;-87
2024/01/12 07:48:11;;;;;;;27.75;13.43;;;-5.50;70.20;;;;;;5064846;27;20590;-88
2024/01/12 07:50:39;;;;;;;30.23;14.40;;;-5.20;70.50;;;;;;5092168;27;20226;-88
2024/01/12 07:53:06;;;;;;;27.60;14.52;;;-4.50;71.50;;;;;;5060996;27;20298;-89
2024/01/12 07:55:33;;;;;;;23.42;12.85;;;-3.90;69.40;;;;;;5053662;27;20274;-89
2024/01/12 07:57:59;;;;;;;27.00;12.55;;;-3.50;68.20;;;;;;5052864;27;20234;-88
2024/01/12 08:00:26;;;;;;;22.80;12.43;;;-3.30;66.90;;;;;;5123843;27;20278;-89
2024/01/12 08:02:53;;;;;;;26.77;13.45;;;-3.00;66.40;;;;;;5066471;27;20270;-89
2024/01/12 08:05:22;;;;;;;30.92;12.18;;;-2.80;65.20;;;;;;5108424;27;20268;-89
2024/01/12 08:07:49;;;;;;;21.20;12.65;;;-2.50;63.70;;;;;;5072171;27;20198;-88
2024/01/12 08:10:17;;;;;;;22.33;11.63;;;-2.40;62.50;;;;;;5050758;28;20183;-89
2024/01/12 08:12:44;;;;;;;31.42;14.23;;;-2.20;62.10;;;;;;5050612;28;20186;-88
2024/01/12 08:15:11;;;;;;;29.13;13.38;;;-1.90;61.00;;;;;;5049700;28;20222;-89
2024/01/12 08:17:38;;;;;;;25.05;14.98;;;-1.80;59.60;;;;;;5051039;28;20587;-88
2024/01/12 08:20:06;;;;;;;34.22;19.63;;;-1.80;59.10;;;;;;5051249;28;20287;-88
2024/01/12 08:22:35;;;;;;;39.05;22.45;;;-1.80;58.50;;;;;;5051675;28;20544;-89
2024/01/12 08:25:02;;;;;;;36.35;19.35;;;-1.90;58.60;;;;;;5051422;28;20306;-88
2024/01/12 08:27:29;;;;;;;26.88;12.15;;;-2.00;58.90;;;;;;5050359;28;20226;-89
2024/01/12 08:29:56;;;;;;;27.95;12.55;;;-2.00;59.10;;;;;;5051434;28;20229;-88
2024/01/12 08:32:23;;;;;;;21.02;10.50;;;-2.00;59.30;;;;;;5051479;28;20214;-88
2024/01/12 08:34:50;;;;;;;25.92;11.98;;;-2.00;59.30;;;;;;5051539;28;20301;-87
2024/01/12 08:37:17;;;;;;;22.73;11.63;;;-1.90;59.30;;;;;;5051436;28;20296;-92
2024/01/12 08:39:45;;;;;;;24.98;12.32;;;-1.90;59.20;;;;;;5051379;28;20287;-89
2024/01/12 08:42:12;;;;;;;28.15;13.43;;;-1.80;59.10;;;;;;5051239;28;20191;-89
2024/01/12 08:44:40;;;;;;;26.92;13.50;;;-1.60;58.90;;;;;;5050864;28;20246;-88
2024/01/12 08:47:06;;;;;;;31.65;15.73;;;-1.20;58.60;;;;;;5050752;28;20305;-89
2024/01/12 08:49:33;;;;;;;29.27;14.90;;;-0.90;58.30;;;;;;5051121;28;20282;-89
2024/01/12 08:52:00;;;;;;;31.58;15.43;;;-0.50;58.10;;;;;;5051172;28;20608;-89
2024/01/12 08:54:27;;;;;;;32.00;16.42;;;-0.10;57.20;;;;;;5051095;28;20277;-89
2024/01/12 08:56:58;;;;;;;25.63;13.80;;;0.10;56.90;;;;;;5050805;28;20277;-88
2024/01/12 08:59:27;;;;;;;24.90;13.10;;;0.40;56.70;;;;;;5050799;28;20255;-88
2024/01/12 09:01:55;;;;;;;30.90;16.00;;;0.70;56.00;;;;;;5050934;28;20275;-89
2024/01/12 09:04:23;;;;;;;31.88;14.95;;;1.00;56.40;;;;;;5050878;28;20297;-89
2024/01/12 09:06:50;;;;;;;33.95;18.42;;;1.20;55.60;;;;;;5050641;28;20191;-89
2024/01/12 09:09:19;;;;;;;29.63;16.65;;;1.50;55.30;;;;;;5050590;28;20240;-92
2024/01/12 09:11:46;;;;;;;25.13;15.35;;;1.80;53.50;;;;;;5050527;28;20202;-89
2024/01/12 09:14:14;;;;;;;24.83;15.07;;;2.00;52.10;;;;;;5050530;28;20285;-89
2024/01/12 09:16:41;;;;;;;31.33;16.25;;;2.20;51.50;;;;;;5050896;27;20222;-89
2024/01/12 09:19:08;;;;;;;34.40;16.30;;;2.30;49.20;;;;;;5050783;28;20285;-89
2024/01/12 09:21:35;;;;;;;25.05;14.52;;;2.30;48.90;;;;;;5050699;28;20201;-89
2024/01/12 09:24:02;;;;;;;26.65;13.20;;;2.40;48.60;;;;;;5050578;28;20310;-90
2024/01/12 09:26:28;;;;;;;25.70;12.60;;;2.40;48.00;;;;;;5050407;28;20660;-89
2024/01/12 09:28:55;;;;;;;22.13;12.68;;;2.50;48.80;;;;;;5050684;28;20277;-89
2024/01/12 09:31:24;;;;;;;22.58;12.80;;;2.70;48.80;;;;;;5050588;28;20222;-89
2024/01/12 09:33:51;;;;;;;25.90;13.43;;;3.00;49.80;;;;;;5050179;28;20237;-90
2024/01/12 09:36:18;;;;;;;26.15;14.30;;;3.30;49.40;;;;;;5050115;28;20197;-89
2024/01/12 09:38:45;;;;;;;27.00;13.20;;;3.60;49.40;;;;;;5049760;28;20690;-89
2024/01/12 09:41:12;;;;;;;24.33;12.48;;;4.00;48.90;;;;;;5050163;28;20644;-89
2024/01/12 09:43:41;;;;;;;24.17;13.35;;;4.20;46.70;;;;;;5050408;28;20242;-88
2024/01/12 09:46:10;;;;;;;24.98;12.80;;;4.30;45.70;;;;;;5050177;28;20306;-89
2024/01/12 09:48:41;;;;;;;26.00;15.80;;;4.40;46.30;;;;;;5050389;28;20187;-89
2024/01/12 09:51:09;;;;;;;26.45;16.25;;;4.70;46.20;;;;;;5049943;28;20278;-90
2024/01/12 09:53:37;;;;;;;30.17;16.20;;;4.90;45.70;;;;;;5050255;28;20286;-90
2024/01/12 09:56:04;;;;;;;26.52;14.82;;;5.20;45.30;;;;;;5050288;28;20191;-89
2024/01/12 09:58:32;;;;;;;22.67;15.52;;;5.30;44.60;;;;;;5049922;28;20277;-90
2024/01/12 10:01:00;;;;;;;24.13;14.43;;;5.60;44.20;;;;;;5049956;27;20653;-90
2024/01/12 10:03:27;;;;;;;24.45;15.93;;;5.80;44.40;;;;;;5050002;28;20335;-90
2024/01/12 10:05:55;;;;;;;18.08;11.40;;;6.10;44.10;;;;;;5050235;28;20242;-89
2024/01/12 10:08:22;;;;;;;15.98;10.15;;;6.30;43.60;;;;;;5050224;28;20609;-90
2024/01/12 10:10:51;;;;;;;15.40;10.55;;;6.50;41.90;;;;;;5050031;28;20278;-89
2024/01/12 10:13:17;;;;;;;16.92;12.00;;;6.60;42.10;;;;;;5050083;28;20252;-89
2024/01/12 10:15:44;;;;;;;15.80;11.40;;;6.70;41.90;;;;;;5049771;28;20281;-90
2024/01/12 10:18:11;;;;;;;16.77;12.00;;;6.90;41.40;;;;;;5049950;28;20294;-89
2024/01/12 10:20:38;;;;;;;19.30;13.15;;;7.00;40.30;;;;;;5050004;28;20191;-90
2024/01/12 10:23:08;;;;;;;20.85;12.00;;;7.10;41.00;;;;;;5049792;28;20209;-89
2024/01/12 10:25:35;;;;;;;15.20;10.70;;;7.30;40.60;;;;;;5049502;28;20695;-90
2024/01/12 10:28:02;;;;;;;21.42;12.50;;;7.50;40.40;;;;;;5049570;28;20648;-89
2024/01/12 10:30:31;;;;;;;16.15;12.10;;;7.80;40.80;;;;;;5049946;28;20226;-89
2024/01/12 10:32:58;;;;;;;14.13;10.48;;;8.10;39.70;;;;;;5049782;28;20274;-89
2024/01/12 10:35:25;;;;;;;15.57;10.85;;;8.20;39.30;;;;;;5049789;28;20282;-87
2024/01/12 10:37:56;;;;;;;17.75;10.52;;;8.30;38.50;;;;;;5049887;28;20195;-87
2024/01/12 10:40:26;;;;;;;17.95;11.52;;;8.20;38.30;;;;;;5049870;28;20175;-89
2024/01/12 10:42:56;;;;;;;18.95;12.77;;;8.20;38.60;;;;;;5049889;28;20327;-90
2024/01/12 10:45:26;;;;;;;17.95;12.45;;;8.30;38.90;;;;;;5049858;28;20205;-89
2024/01/12 10:48:01;;;;;;;19.17;12.27;;;8.40;38.80;;;;;;5049253;28;20305;-88
2024/01/12 10:50:31;;;;;;;18.10;12.02;;;8.70;39.00;;;;;;5050827;28;20533;-89
2024/01/12 10:53:06;;;;;;;22.17;13.32;;;8.80;37.60;;;;;;5053140;28;20548;-89
2024/01/12 10:55:38;;;;;;;26.52;15.25;;;8.90;38.10;;;;;;5053176;28;20218;-89
2024/01/12 10:58:06;;;;;;;23.67;14.27;;;9.10;37.60;;;;;;5053016;28;20215;-89
2024/01/12 11:00:33;;;;;;;20.08;12.88;;;9.10;36.80;;;;;;5052830;28;20222;-88
2024/01/12 11:03:01;;;;;;;22.90;14.90;;;9.20;36.90;;;;;;5053036;28;20289;-88
2024/01/12 11:05:29;;;;;;;20.83;13.07;;;9.20;36.10;;;;;;5052864;28;20287;-88
2024/01/12 11:07:58;;;;;;;22.63;15.65;;;9.30;36.20;;;;;;5052753;28;20233;-86
2024/01/12 11:10:28;;;;;;;20.33;14.50;;;9.50;36.10;;;;;;5052587;28;20190;-88
2024/01/12 11:12:57;;;;;;;20.13;13.30;;;9.60;35.90;;;;;;5052882;28;20277;-87
2024/01/12 11:15:24;;;;;;;20.73;13.95;;;9.80;35.80;;;;;;5052563;28;20247;-88
2024/01/12 11:17:51;;;;;;;24.67;16.45;;;9.90;35.70;;;;;;5052298;28;20281;-88
2024/01/12 11:20:21;;;;;;;16.80;12.82;;;9.90;35.60;;;;;;5052286;28;20187;-88
2024/01/12 11:22:50;;;;;;;19.42;13.18;;;9.90;35.70;;;;;;5052547;28;20226;-88
2024/01/12 11:25:20;;;;;;;24.27;15.63;;;10.10;35.00;;;;;;5052314;28;20214;-87
2024/01/12 11:27:49;;;;;;;19.55;13.25;;;10.20;34.60;;;;;;5052102;28;20199;-88
2024/01/12 11:30:19;;;;;;;18.98;12.88;;;10.40;34.80;;;;;;5052377;28;20201;-88
2024/01/12 11:32:47;;;;;;;35.20;18.05;;;10.60;34.60;;;;;;5052365;28;20282;-88
2024/01/12 11:35:15;;;;;;;20.05;13.55;;;10.80;34.10;;;;;;5052085;28;20204;-88
2024/01/12 11:37:43;;;;;;;19.75;13.43;;;11.00;33.30;;;;;;5051911;28;20261;-88
2024/01/12 11:40:12;;;;;;;20.13;13.20;;;11.10;32.90;;;;;;5051876;28;20709;-86
2024/01/12 11:42:40;;;;;;;19.77;14.00;;;11.20;33.00;;;;;;5052272;28;20274;-85
2024/01/12 11:45:10;;;;;;;104.68;50.97;;;11.40;33.00;;;;;;5052071;28;20302;-85
2024/01/12 11:47:40;;;;;;;16.98;13.85;;;11.50;32.80;;;;;;5052180;28;20222;-86
2024/01/12 11:50:08;;;;;;;20.27;15.02;;;11.50;32.50;;;;;;5051807;28;20298;-86
2024/01/12 11:52:36;;;;;;;17.30;13.57;;;11.50;32.80;;;;;;5051884;28;20585;-86
2024/01/12 11:55:04;;;;;;;23.48;14.40;;;11.40;32.50;;;;;;5052005;28;20199;-85
2024/01/12 11:57:31;;;;;;;18.35;13.73;;;11.50;33.00;;;;;;5051940;28;20552;-86
2024/01/12 11:59:58;;;;;;;22.48;15.95;;;11.50;32.80;;;;;;5051567;28;20289;-85
2024/01/12 12:02:25;;;;;;;23.52;15.85;;;11.50;32.70;;;;;;5051436;28;20727;-86
2024/01/12 12:04:54;;;;;;;24.30;17.57;;;11.50;32.20;;;;;;5051815;28;20310;-86
2024/01/12 12:07:25;;;;;;;25.33;16.08;;;11.40;31.70;;;;;;5052000;28;20478;-88
2024/01/12 12:09:54;;;;;;;21.92;16.20;;;11.10;31.40;;;;;;5051437;28;20187;-88
2024/01/12 12:12:21;;;;;;;23.33;15.30;;;10.80;31.60;;;;;;5051820;28;20198;-88
2024/01/12 12:14:58;;;;;;;23.63;17.25;;;10.50;31.30;;;;;;5051387;28;20286;-88
2024/01/12 12:17:28;;;;;;;22.15;15.77;;;10.00;31.70;;;;;;5051654;28;20286;-88
2024/01/12 12:19:57;;;;;;;24.73;16.80;;;9.60;32.70;;;;;;5051627;28;20195;-89
2024/01/12 12:22:24;;;;;;;26.83;17.77;;;9.20;33.30;;;;;;5050285;28;20262;-87
2024/01/12 12:24:51;;;;;;;30.00;20.42;;;8.60;33.70;;;;;;5051366;27;20271;-88
2024/01/12 12:27:20;;;;;;;22.42;17.85;;;8.20;34.50;;;;;;5062113;27;20239;-87
2024/01/12 12:29:47;;;;;;;32.70;21.75;;;7.90;35.40;;;;;;5071475;28;20256;-88
2024/01/12 12:32:14;;;;;;;29.33;21.67;;;7.70;36.60;;;;;;5071433;28;20222;-88
2024/01/12 12:34:43;;;;;;;29.90;19.48;;;7.70;37.00;;;;;;5060501;27;20279;-88